sensor_id;sensor_type;location;lat;lon;timestamp;temperature;humidity
8882;DHT22;4477;48.736;9.176;2022-07-06T00:02:20;15.30;96.50
8882;DHT22;4477;48.736;9.176;2022-07-06T00:04:46;15.20;96.40
8882;DHT22;4477;48.736;9.176;2022-07-06T00:07:13;15.20;95.90
8882;DHT22;4477;48.736;9.176;2022-07-06T00:09:40;15.10;96.20
8882;DHT22;4477;48.736;9.176;2022-07-06T00:12:09;15.20;96.00
8882;DHT22;4477;48.736;9.176;2022-07-06T00:14:36;15.30;95.80
8882;DHT22;4477;48.736;9.176;2022-07-06T00:17:03;15.30;95.70
8882;DHT22;4477;48.736;9.176;2022-07-06T00:19:30;15.20;95.80
8882;DHT22;4477;48.736;9.176;2022-07-06T00:21:57;15.10;96.00
8882;DHT22;4477;48.736;9.176;2022-07-06T00:24:24;15.00;96.20
8882;DHT22;4477;48.736;9.176;2022-07-06T00:26:51;15.00;97.10
8882;DHT22;4477;48.736;9.176;2022-07-06T00:29:19;14.90;97.40
8882;DHT22;4477;48.736;9.176;2022-07-06T00:31:46;14.70;97.60
8882;DHT22;4477;48.736;9.176;2022-07-06T00:34:13;14.60;98.40
8882;DHT22;4477;48.736;9.176;2022-07-06T00:36:40;14.60;98.70
8882;DHT22;4477;48.736;9.176;2022-07-06T00:39:07;14.60;99.10
8882;DHT22;4477;48.736;9.176;2022-07-06T00:41:34;14.60;98.80
8882;DHT22;4477;48.736;9.176;2022-07-06T00:44:07;14.50;99.10
8882;DHT22;4477;48.736;9.176;2022-07-06T00:46:35;14.30;99.60
8882;DHT22;4477;48.736;9.176;2022-07-06T00:49:02;14.20;99.90
8882;DHT22;4477;48.736;9.176;2022-07-06T00:51:31;14.20;99.90
8882;DHT22;4477;48.736;9.176;2022-07-06T00:53:59;14.10;99.90
8882;DHT22;4477;48.736;9.176;2022-07-06T00:56:29;14.10;99.90
8882;DHT22;4477;48.736;9.176;2022-07-06T00:58:56;14.00;99.90
8882;DHT22;4477;48.736;9.176;2022-07-06T01:01:23;13.90;99.90
8882;DHT22;4477;48.736;9.176;2022-07-06T01:03:51;13.80;99.90
8882;DHT22;4477;48.736;9.176;2022-07-06T01:06:18;13.70;99.90
8882;DHT22;4477;48.736;9.176;2022-07-06T01:08:46;13.80;99.90
8882;DHT22;4477;48.736;9.176;2022-07-06T01:11:13;13.80;99.90
8882;DHT22;4477;48.736;9.176;2022-07-06T01:13:40;13.70;99.90
8882;DHT22;4477;48.736;9.176;2022-07-06T01:16:07;13.60;99.90
8882;DHT22;4477;48.736;9.176;2022-07-06T01:18:34;13.40;99.90
8882;DHT22;4477;48.736;9.176;2022-07-06T01:21:08;13.20;99.90
8882;DHT22;4477;48.736;9.176;2022-07-06T01:23:41;13.10;99.90
8882;DHT22;4477;48.736;9.176;2022-07-06T01:26:10;13.00;99.90
8882;DHT22;4477;48.736;9.176;2022-07-06T01:28:38;13.00;99.90
8882;DHT22;4477;48.736;9.176;2022-07-06T01:31:05;13.00;99.90
8882;DHT22;4477;48.736;9.176;2022-07-06T01:33:32;13.10;99.90
8882;DHT22;4477;48.736;9.176;2022-07-06T01:35:59;13.20;99.90
8882;DHT22;4477;48.736;9.176;2022-07-06T01:38:27;13.20;99.90
8882;DHT22;4477;48.736;9.176;2022-07-06T01:40:54;13.30;99.90
8882;DHT22;4477;48.736;9.176;2022-07-06T01:43:21;13.30;99.90
8882;DHT22;4477;48.736;9.176;2022-07-06T01:45:48;13.30;99.90
8882;DHT22;4477;48.736;9.176;2022-07-06T01:48:14;13.20;99.90
8882;DHT22;4477;48.736;9.176;2022-07-06T01:50:41;13.10;99.90
8882;DHT22;4477;48.736;9.176;2022-07-06T01:53:08;12.80;99.90
8882;DHT22;4477;48.736;9.176;2022-07-06T01:55:37;12.60;99.90
8882;DHT22;4477;48.736;9.176;2022-07-06T01:58:04;12.50;99.90
8882;DHT22;4477;48.736;9.176;2022-07-06T02:00:31;12.30;99.90
8882;DHT22;4477;48.736;9.176;2022-07-06T02:02:58;12.20;99.90
8882;DHT22;4477;48.736;9.176;2022-07-06T02:05:25;12.10;99.90
8882;DHT22;4477;48.736;9.176;2022-07-06T02:07:52;12.10;99.90
8882;DHT22;4477;48.736;9.176;2022-07-06T02:10:19;12.00;99.90
8882;DHT22;4477;48.736;9.176;2022-07-06T02:12:48;12.00;99.90
8882;DHT22;4477;48.736;9.176;2022-07-06T02:15:16;12.00;99.90
8882;DHT22;4477;48.736;9.176;2022-07-06T02:17:43;11.90;99.90
8882;DHT22;4477;48.736;9.176;2022-07-06T02:20:10;12.00;99.90
8882;DHT22;4477;48.736;9.176;2022-07-06T02:22:37;11.90;99.90
8882;DHT22;4477;48.736;9.176;2022-07-06T02:25:05;11.90;99.90
8882;DHT22;4477;48.736;9.176;2022-07-06T02:27:32;11.80;99.90
8882;DHT22;4477;48.736;9.176;2022-07-06T02:30:00;11.80;99.90
8882;DHT22;4477;48.736;9.176;2022-07-06T02:32:27;11.80;99.90
8882;DHT22;4477;48.736;9.176;2022-07-06T02:34:54;11.80;99.90
8882;DHT22;4477;48.736;9.176;2022-07-06T02:37:21;11.80;99.90
8882;DHT22;4477;48.736;9.176;2022-07-06T02:39:48;11.80;99.90
8882;DHT22;4477;48.736;9.176;2022-07-06T02:42:15;11.80;99.90
8882;DHT22;4477;48.736;9.176;2022-07-06T02:44:42;11.70;99.90
8882;DHT22;4477;48.736;9.176;2022-07-06T02:47:10;11.70;99.90
8882;DHT22;4477;48.736;9.176;2022-07-06T02:49:37;11.70;99.90
8882;DHT22;4477;48.736;9.176;2022-07-06T02:52:04;11.70;99.90
8882;DHT22;4477;48.736;9.176;2022-07-06T02:54:31;11.60;99.90
8882;DHT22;4477;48.736;9.176;2022-07-06T02:56:58;11.60;99.90
8882;DHT22;4477;48.736;9.176;2022-07-06T02:59:25;11.70;99.90
8882;DHT22;4477;48.736;9.176;2022-07-06T03:01:52;11.80;99.90
8882;DHT22;4477;48.736;9.176;2022-07-06T03:04:20;12.00;99.90
8882;DHT22;4477;48.736;9.176;2022-07-06T03:06:47;12.10;99.90
8882;DHT22;4477;48.736;9.176;2022-07-06T03:09:14;12.10;99.90
8882;DHT22;4477;48.736;9.176;2022-07-06T03:11:41;12.10;99.90
8882;DHT22;4477;48.736;9.176;2022-07-06T03:14:07;12.00;99.90
8882;DHT22;4477;48.736;9.176;2022-07-06T03:16:34;12.00;99.90
8882;DHT22;4477;48.736;9.176;2022-07-06T03:19:01;11.90;99.90
8882;DHT22;4477;48.736;9.176;2022-07-06T03:21:30;11.80;99.90
8882;DHT22;4477;48.736;9.176;2022-07-06T03:23:57;11.90;99.90
8882;DHT22;4477;48.736;9.176;2022-07-06T03:26:24;12.00;99.90
8882;DHT22;4477;48.736;9.176;2022-07-06T03:28:51;12.10;99.90
8882;DHT22;4477;48.736;9.176;2022-07-06T03:31:18;12.00;99.90
8882;DHT22;4477;48.736;9.176;2022-07-06T03:33:45;11.90;99.90
8882;DHT22;4477;48.736;9.176;2022-07-06T03:36:11;11.90;99.90
8882;DHT22;4477;48.736;9.176;2022-07-06T03:38:40;11.80;99.90
8882;DHT22;4477;48.736;9.176;2022-07-06T03:41:07;11.70;99.90
8882;DHT22;4477;48.736;9.176;2022-07-06T03:43:34;11.70;99.90
8882;DHT22;4477;48.736;9.176;2022-07-06T03:46:01;11.70;99.90
8882;DHT22;4477;48.736;9.176;2022-07-06T03:48:27;11.70;99.90
8882;DHT22;4477;48.736;9.176;2022-07-06T03:50:55;11.70;99.90
8882;DHT22;4477;48.736;9.176;2022-07-06T03:53:22;11.70;99.90
8882;DHT22;4477;48.736;9.176;2022-07-06T03:55:50;11.70;99.90
8882;DHT22;4477;48.736;9.176;2022-07-06T03:58:31;11.80;99.90
8882;DHT22;4477;48.736;9.176;2022-07-06T04:00:58;11.80;99.90
8882;DHT22;4477;48.736;9.176;2022-07-06T04:03:25;11.80;99.90
8882;DHT22;4477;48.736;9.176;2022-07-06T04:05:52;11.90;99.90
8882;DHT22;4477;48.736;9.176;2022-07-06T04:08:19;11.90;99.90
8882;DHT22;4477;48.736;9.176;2022-07-06T04:10:46;12.00;99.90
8882;DHT22;4477;48.736;9.176;2022-07-06T04:13:14;12.00;99.90
8882;DHT22;4477;48.736;9.176;2022-07-06T04:15:41;12.10;99.90
8882;DHT22;4477;48.736;9.176;2022-07-06T04:18:08;12.20;99.90
8882;DHT22;4477;48.736;9.176;2022-07-06T04:20:35;12.30;99.90
8882;DHT22;4477;48.736;9.176;2022-07-06T04:23:02;12.40;99.90
8882;DHT22;4477;48.736;9.176;2022-07-06T04:25:29;12.50;99.90
8882;DHT22;4477;48.736;9.176;2022-07-06T04:27:56;12.60;99.90
8882;DHT22;4477;48.736;9.176;2022-07-06T04:30:24;12.60;99.90
8882;DHT22;4477;48.736;9.176;2022-07-06T04:32:51;12.70;99.90
8882;DHT22;4477;48.736;9.176;2022-07-06T04:35:18;12.80;99.90
8882;DHT22;4477;48.736;9.176;2022-07-06T04:37:45;12.90;99.90
8882;DHT22;4477;48.736;9.176;2022-07-06T04:40:13;13.10;99.90
8882;DHT22;4477;48.736;9.176;2022-07-06T04:42:40;13.30;99.90
8882;DHT22;4477;48.736;9.176;2022-07-06T04:45:08;13.40;99.90
8882;DHT22;4477;48.736;9.176;2022-07-06T04:47:37;13.60;99.90
8882;DHT22;4477;48.736;9.176;2022-07-06T04:50:05;13.90;99.90
8882;DHT22;4477;48.736;9.176;2022-07-06T04:52:32;14.10;99.90
8882;DHT22;4477;48.736;9.176;2022-07-06T04:54:59;14.30;99.90
8882;DHT22;4477;48.736;9.176;2022-07-06T04:57:25;14.50;99.90
8882;DHT22;4477;48.736;9.176;2022-07-06T04:59:55;14.70;99.90
8882;DHT22;4477;48.736;9.176;2022-07-06T05:02:22;15.10;99.90
8882;DHT22;4477;48.736;9.176;2022-07-06T05:04:50;15.70;99.90
8882;DHT22;4477;48.736;9.176;2022-07-06T05:07:17;16.20;99.90
8882;DHT22;4477;48.736;9.176;2022-07-06T05:09:44;16.50;99.90
8882;DHT22;4477;48.736;9.176;2022-07-06T05:12:11;17.10;99.90
8882;DHT22;4477;48.736;9.176;2022-07-06T05:14:38;17.50;99.90
8882;DHT22;4477;48.736;9.176;2022-07-06T05:17:05;17.80;99.90
8882;DHT22;4477;48.736;9.176;2022-07-06T05:19:33;18.00;99.90
8882;DHT22;4477;48.736;9.176;2022-07-06T05:22:02;18.20;99.90
8882;DHT22;4477;48.736;9.176;2022-07-06T05:24:29;18.60;99.70
8882;DHT22;4477;48.736;9.176;2022-07-06T05:26:56;19.10;97.70
8882;DHT22;4477;48.736;9.176;2022-07-06T05:29:23;19.50;95.90
8882;DHT22;4477;48.736;9.176;2022-07-06T05:31:50;19.60;95.20
8882;DHT22;4477;48.736;9.176;2022-07-06T05:34:16;19.50;94.80
8882;DHT22;4477;48.736;9.176;2022-07-06T05:36:43;19.70;94.40
8882;DHT22;4477;48.736;9.176;2022-07-06T05:39:14;19.60;93.90
8882;DHT22;4477;48.736;9.176;2022-07-06T05:41:44;19.80;93.70
8882;DHT22;4477;48.736;9.176;2022-07-06T05:44:11;20.00;93.80
8882;DHT22;4477;48.736;9.176;2022-07-06T05:46:38;20.00;93.60
8882;DHT22;4477;48.736;9.176;2022-07-06T05:49:05;20.10;93.20
8882;DHT22;4477;48.736;9.176;2022-07-06T05:51:49;20.30;92.30
8882;DHT22;4477;48.736;9.176;2022-07-06T05:54:18;20.40;92.10
8882;DHT22;4477;48.736;9.176;2022-07-06T05:56:45;20.40;91.30
8882;DHT22;4477;48.736;9.176;2022-07-06T05:59:11;20.50;90.90
8882;DHT22;4477;48.736;9.176;2022-07-06T06:01:38;20.30;90.90
8882;DHT22;4477;48.736;9.176;2022-07-06T06:04:05;20.30;91.00
8882;DHT22;4477;48.736;9.176;2022-07-06T06:06:32;20.40;90.50
8882;DHT22;4477;48.736;9.176;2022-07-06T06:08:59;20.30;90.30
8882;DHT22;4477;48.736;9.176;2022-07-06T06:11:28;20.30;90.10
8882;DHT22;4477;48.736;9.176;2022-07-06T06:13:55;20.20;90.50
8882;DHT22;4477;48.736;9.176;2022-07-06T06:16:22;20.40;90.00
8882;DHT22;4477;48.736;9.176;2022-07-06T06:18:49;20.60;90.40
8882;DHT22;4477;48.736;9.176;2022-07-06T06:21:16;20.70;88.20
8882;DHT22;4477;48.736;9.176;2022-07-06T06:23:43;21.00;89.40
8882;DHT22;4477;48.736;9.176;2022-07-06T06:26:09;21.20;88.40
8882;DHT22;4477;48.736;9.176;2022-07-06T06:28:38;21.10;87.00
8882;DHT22;4477;48.736;9.176;2022-07-06T06:31:07;20.80;87.60
8882;DHT22;4477;48.736;9.176;2022-07-06T06:33:34;20.40;87.80
8882;DHT22;4477;48.736;9.176;2022-07-06T06:36:01;20.80;87.90
8882;DHT22;4477;48.736;9.176;2022-07-06T06:38:27;21.20;86.30
8882;DHT22;4477;48.736;9.176;2022-07-06T06:40:55;21.00;86.30
8882;DHT22;4477;48.736;9.176;2022-07-06T06:43:23;21.00;86.10
8882;DHT22;4477;48.736;9.176;2022-07-06T06:45:51;20.90;84.60
8882;DHT22;4477;48.736;9.176;2022-07-06T06:48:18;21.10;87.10
8882;DHT22;4477;48.736;9.176;2022-07-06T06:50:46;20.70;84.70
8882;DHT22;4477;48.736;9.176;2022-07-06T06:53:12;20.70;87.00
8882;DHT22;4477;48.736;9.176;2022-07-06T06:55:39;20.80;86.10
8882;DHT22;4477;48.736;9.176;2022-07-06T06:58:07;20.60;86.40
8882;DHT22;4477;48.736;9.176;2022-07-06T07:00:34;20.20;87.70
8882;DHT22;4477;48.736;9.176;2022-07-06T07:03:02;19.90;90.30
8882;DHT22;4477;48.736;9.176;2022-07-06T07:05:29;20.10;88.10
8882;DHT22;4477;48.736;9.176;2022-07-06T07:07:56;20.60;88.10
8882;DHT22;4477;48.736;9.176;2022-07-06T07:10:24;21.80;85.40
8882;DHT22;4477;48.736;9.176;2022-07-06T07:12:51;22.40;81.00
8882;DHT22;4477;48.736;9.176;2022-07-06T07:15:18;22.70;77.80
8882;DHT22;4477;48.736;9.176;2022-07-06T07:17:45;22.60;78.10
8882;DHT22;4477;48.736;9.176;2022-07-06T07:20:14;22.80;76.50
8882;DHT22;4477;48.736;9.176;2022-07-06T07:22:41;23.30;76.90
8882;DHT22;4477;48.736;9.176;2022-07-06T07:25:08;23.70;76.80
8882;DHT22;4477;48.736;9.176;2022-07-06T07:27:35;24.30;72.10
8882;DHT22;4477;48.736;9.176;2022-07-06T07:30:03;24.30;72.10
8882;DHT22;4477;48.736;9.176;2022-07-06T07:32:30;24.30;71.10
8882;DHT22;4477;48.736;9.176;2022-07-06T07:34:57;24.80;70.30
8882;DHT22;4477;48.736;9.176;2022-07-06T07:37:25;25.10;70.70
8882;DHT22;4477;48.736;9.176;2022-07-06T07:39:52;25.00;69.10
8882;DHT22;4477;48.736;9.176;2022-07-06T07:42:19;25.40;69.90
8882;DHT22;4477;48.736;9.176;2022-07-06T07:44:46;25.60;67.60
8882;DHT22;4477;48.736;9.176;2022-07-06T07:47:13;25.80;67.30
8882;DHT22;4477;48.736;9.176;2022-07-06T07:49:40;25.80;69.90
8882;DHT22;4477;48.736;9.176;2022-07-06T07:52:07;25.70;65.30
8882;DHT22;4477;48.736;9.176;2022-07-06T07:54:35;26.00;60.50
8882;DHT22;4477;48.736;9.176;2022-07-06T07:57:03;25.80;62.60
8882;DHT22;4477;48.736;9.176;2022-07-06T07:59:30;25.80;66.10
8882;DHT22;4477;48.736;9.176;2022-07-06T08:01:57;26.10;64.40
8882;DHT22;4477;48.736;9.176;2022-07-06T08:04:24;25.90;61.40
8882;DHT22;4477;48.736;9.176;2022-07-06T08:06:51;26.00;61.30
8882;DHT22;4477;48.736;9.176;2022-07-06T08:09:18;26.10;62.30
8882;DHT22;4477;48.736;9.176;2022-07-06T08:11:46;26.00;62.80
8882;DHT22;4477;48.736;9.176;2022-07-06T08:14:13;25.90;62.70
8882;DHT22;4477;48.736;9.176;2022-07-06T08:16:40;25.70;62.30
8882;DHT22;4477;48.736;9.176;2022-07-06T08:19:07;25.60;61.90
8882;DHT22;4477;48.736;9.176;2022-07-06T08:21:34;25.60;62.60
8882;DHT22;4477;48.736;9.176;2022-07-06T08:24:02;25.70;62.90
8882;DHT22;4477;48.736;9.176;2022-07-06T08:26:29;25.50;61.40
8882;DHT22;4477;48.736;9.176;2022-07-06T08:28:57;25.80;64.90
8882;DHT22;4477;48.736;9.176;2022-07-06T08:31:24;26.30;64.20
8882;DHT22;4477;48.736;9.176;2022-07-06T08:33:52;26.70;60.90
8882;DHT22;4477;48.736;9.176;2022-07-06T08:36:19;26.80;60.40
8882;DHT22;4477;48.736;9.176;2022-07-06T08:38:47;26.50;60.00
8882;DHT22;4477;48.736;9.176;2022-07-06T08:41:15;26.70;60.20
8882;DHT22;4477;48.736;9.176;2022-07-06T08:43:42;26.80;62.10
8882;DHT22;4477;48.736;9.176;2022-07-06T08:46:13;27.10;61.10
8882;DHT22;4477;48.736;9.176;2022-07-06T08:48:41;27.70;65.90
8882;DHT22;4477;48.736;9.176;2022-07-06T08:51:08;27.30;59.30
8882;DHT22;4477;48.736;9.176;2022-07-06T08:53:34;27.20;59.10
8882;DHT22;4477;48.736;9.176;2022-07-06T08:56:02;26.80;61.30
8882;DHT22;4477;48.736;9.176;2022-07-06T08:58:29;26.40;59.70
8882;DHT22;4477;48.736;9.176;2022-07-06T09:00:57;25.90;60.00
8882;DHT22;4477;48.736;9.176;2022-07-06T09:03:26;25.90;67.80
8882;DHT22;4477;48.736;9.176;2022-07-06T09:06:00;26.30;61.70
8882;DHT22;4477;48.736;9.176;2022-07-06T09:08:30;26.80;63.30
8882;DHT22;4477;48.736;9.176;2022-07-06T09:10:57;27.20;61.00
8882;DHT22;4477;48.736;9.176;2022-07-06T09:13:24;27.10;57.70
8882;DHT22;4477;48.736;9.176;2022-07-06T09:15:51;26.80;60.00
8882;DHT22;4477;48.736;9.176;2022-07-06T09:18:21;27.00;62.30
8882;DHT22;4477;48.736;9.176;2022-07-06T09:20:49;27.00;58.20
8882;DHT22;4477;48.736;9.176;2022-07-06T09:23:16;27.10;59.80
8882;DHT22;4477;48.736;9.176;2022-07-06T09:25:47;27.20;59.50
8882;DHT22;4477;48.736;9.176;2022-07-06T09:28:15;27.00;57.90
8882;DHT22;4477;48.736;9.176;2022-07-06T09:30:42;27.00;57.10
8882;DHT22;4477;48.736;9.176;2022-07-06T09:33:09;26.90;61.60
8882;DHT22;4477;48.736;9.176;2022-07-06T09:35:38;27.10;58.40
8882;DHT22;4477;48.736;9.176;2022-07-06T09:38:09;27.10;57.00
8882;DHT22;4477;48.736;9.176;2022-07-06T09:40:38;27.50;58.00
8882;DHT22;4477;48.736;9.176;2022-07-06T09:43:09;27.30;58.90
8882;DHT22;4477;48.736;9.176;2022-07-06T09:45:38;27.50;58.20
8882;DHT22;4477;48.736;9.176;2022-07-06T09:48:07;27.30;58.60
8882;DHT22;4477;48.736;9.176;2022-07-06T09:50:44;27.60;58.80
8882;DHT22;4477;48.736;9.176;2022-07-06T09:53:13;27.60;59.30
8882;DHT22;4477;48.736;9.176;2022-07-06T09:55:43;28.30;61.70
8882;DHT22;4477;48.736;9.176;2022-07-06T09:58:11;28.30;55.60
8882;DHT22;4477;48.736;9.176;2022-07-06T10:00:38;27.70;54.10
8882;DHT22;4477;48.736;9.176;2022-07-06T10:03:06;27.20;60.00
8882;DHT22;4477;48.736;9.176;2022-07-06T10:05:36;27.50;57.80
8882;DHT22;4477;48.736;9.176;2022-07-06T10:08:06;27.40;59.80
8882;DHT22;4477;48.736;9.176;2022-07-06T10:10:37;27.40;59.20
8882;DHT22;4477;48.736;9.176;2022-07-06T10:13:04;27.80;59.80
8882;DHT22;4477;48.736;9.176;2022-07-06T10:15:33;28.30;59.10
8882;DHT22;4477;48.736;9.176;2022-07-06T10:18:02;28.20;56.20
8882;DHT22;4477;48.736;9.176;2022-07-06T10:20:31;28.20;56.10
8882;DHT22;4477;48.736;9.176;2022-07-06T10:22:59;28.20;57.50
8882;DHT22;4477;48.736;9.176;2022-07-06T10:25:27;27.60;58.50
8882;DHT22;4477;48.736;9.176;2022-07-06T10:27:56;28.40;57.70
8882;DHT22;4477;48.736;9.176;2022-07-06T10:30:24;28.50;56.10
8882;DHT22;4477;48.736;9.176;2022-07-06T10:32:52;28.90;57.00
8882;DHT22;4477;48.736;9.176;2022-07-06T10:35:20;29.00;56.50
8882;DHT22;4477;48.736;9.176;2022-07-06T10:38:04;29.40;57.70
8882;DHT22;4477;48.736;9.176;2022-07-06T10:40:35;29.90;55.20
8882;DHT22;4477;48.736;9.176;2022-07-06T10:43:21;30.00;54.60
8882;DHT22;4477;48.736;9.176;2022-07-06T10:45:52;28.90;53.60
8882;DHT22;4477;48.736;9.176;2022-07-06T10:48:20;27.50;57.60
8882;DHT22;4477;48.736;9.176;2022-07-06T10:50:50;27.70;60.90
8882;DHT22;4477;48.736;9.176;2022-07-06T10:53:19;28.20;57.40
8882;DHT22;4477;48.736;9.176;2022-07-06T10:55:50;29.00;53.60
8882;DHT22;4477;48.736;9.176;2022-07-06T10:58:40;29.00;54.40
8882;DHT22;4477;48.736;9.176;2022-07-06T11:01:08;28.70;58.10
8882;DHT22;4477;48.736;9.176;2022-07-06T11:03:39;27.80;57.50
8882;DHT22;4477;48.736;9.176;2022-07-06T11:06:09;26.90;60.40
8882;DHT22;4477;48.736;9.176;2022-07-06T11:08:51;27.00;57.50
8882;DHT22;4477;48.736;9.176;2022-07-06T11:11:21;26.30;58.40
8882;DHT22;4477;48.736;9.176;2022-07-06T11:13:52;25.50;60.40
8882;DHT22;4477;48.736;9.176;2022-07-06T11:16:21;25.80;59.90
8882;DHT22;4477;48.736;9.176;2022-07-06T11:18:50;26.80;62.10
8882;DHT22;4477;48.736;9.176;2022-07-06T11:21:33;27.90;63.00
8882;DHT22;4477;48.736;9.176;2022-07-06T11:24:00;28.60;58.00
8882;DHT22;4477;48.736;9.176;2022-07-06T11:26:27;29.10;60.20
8882;DHT22;4477;48.736;9.176;2022-07-06T11:28:58;29.30;55.50
8882;DHT22;4477;48.736;9.176;2022-07-06T11:31:26;28.80;56.30
8882;DHT22;4477;48.736;9.176;2022-07-06T11:33:52;28.10;60.30
8882;DHT22;4477;48.736;9.176;2022-07-06T11:36:21;28.80;55.20
8882;DHT22;4477;48.736;9.176;2022-07-06T11:38:50;29.10;54.80
8882;DHT22;4477;48.736;9.176;2022-07-06T11:41:17;28.80;55.60
8882;DHT22;4477;48.736;9.176;2022-07-06T11:43:46;27.90;55.80
8882;DHT22;4477;48.736;9.176;2022-07-06T11:46:27;27.20;57.20
8882;DHT22;4477;48.736;9.176;2022-07-06T11:48:56;26.80;58.50
8882;DHT22;4477;48.736;9.176;2022-07-06T11:51:24;26.60;61.40
8882;DHT22;4477;48.736;9.176;2022-07-06T11:53:56;27.20;62.00
8882;DHT22;4477;48.736;9.176;2022-07-06T11:56:25;27.30;57.50
8882;DHT22;4477;48.736;9.176;2022-07-06T11:58:54;27.40;60.10
8882;DHT22;4477;48.736;9.176;2022-07-06T12:01:21;27.00;57.30
8882;DHT22;4477;48.736;9.176;2022-07-06T12:03:51;26.90;63.60
8882;DHT22;4477;48.736;9.176;2022-07-06T12:06:19;27.60;56.40
8882;DHT22;4477;48.736;9.176;2022-07-06T12:08:48;27.30;56.00
8882;DHT22;4477;48.736;9.176;2022-07-06T12:11:22;26.50;59.60
8882;DHT22;4477;48.736;9.176;2022-07-06T12:13:50;25.40;62.50
8882;DHT22;4477;48.736;9.176;2022-07-06T12:16:18;24.60;61.10
8882;DHT22;4477;48.736;9.176;2022-07-06T12:18:46;24.70;65.70
8882;DHT22;4477;48.736;9.176;2022-07-06T12:21:17;25.30;66.00
8882;DHT22;4477;48.736;9.176;2022-07-06T12:23:47;25.50;60.50
8882;DHT22;4477;48.736;9.176;2022-07-06T12:26:15;25.90;63.20
8882;DHT22;4477;48.736;9.176;2022-07-06T12:28:43;25.80;63.30
8882;DHT22;4477;48.736;9.176;2022-07-06T12:31:10;26.00;60.40
8882;DHT22;4477;48.736;9.176;2022-07-06T12:33:37;25.60;60.60
8882;DHT22;4477;48.736;9.176;2022-07-06T12:36:12;25.30;63.50
8882;DHT22;4477;48.736;9.176;2022-07-06T12:38:46;25.90;64.50
8882;DHT22;4477;48.736;9.176;2022-07-06T12:41:31;27.30;59.70
8882;DHT22;4477;48.736;9.176;2022-07-06T12:44:04;27.50;57.40
8882;DHT22;4477;48.736;9.176;2022-07-06T12:46:33;27.30;56.00
8882;DHT22;4477;48.736;9.176;2022-07-06T12:49:02;27.40;57.90
8882;DHT22;4477;48.736;9.176;2022-07-06T12:51:52;26.50;57.80
8882;DHT22;4477;48.736;9.176;2022-07-06T12:54:20;25.30;60.90
8882;DHT22;4477;48.736;9.176;2022-07-06T12:57:15;24.60;63.10
8882;DHT22;4477;48.736;9.176;2022-07-06T12:59:44;24.30;66.30
8882;DHT22;4477;48.736;9.176;2022-07-06T13:02:21;24.40;63.70
8882;DHT22;4477;48.736;9.176;2022-07-06T13:04:56;24.50;65.20
8882;DHT22;4477;48.736;9.176;2022-07-06T13:07:23;26.30;62.80
8882;DHT22;4477;48.736;9.176;2022-07-06T13:09:52;27.90;60.60
8882;DHT22;4477;48.736;9.176;2022-07-06T13:12:20;29.60;55.80
8882;DHT22;4477;48.736;9.176;2022-07-06T13:14:49;30.80;52.60
8882;DHT22;4477;48.736;9.176;2022-07-06T13:17:16;31.20;49.80
8882;DHT22;4477;48.736;9.176;2022-07-06T13:19:44;30.50;51.80
8882;DHT22;4477;48.736;9.176;2022-07-06T13:22:11;31.00;51.60
8882;DHT22;4477;48.736;9.176;2022-07-06T13:24:38;30.60;49.10
8882;DHT22;4477;48.736;9.176;2022-07-06T13:27:07;30.60;49.90
8882;DHT22;4477;48.736;9.176;2022-07-06T13:29:34;30.50;50.00
8882;DHT22;4477;48.736;9.176;2022-07-06T13:32:01;30.40;51.00
8882;DHT22;4477;48.736;9.176;2022-07-06T13:34:28;30.80;53.10
8882;DHT22;4477;48.736;9.176;2022-07-06T13:36:55;30.90;51.70
8882;DHT22;4477;48.736;9.176;2022-07-06T13:39:22;31.30;52.20
8882;DHT22;4477;48.736;9.176;2022-07-06T13:41:50;31.80;47.20
8882;DHT22;4477;48.736;9.176;2022-07-06T13:44:18;32.30;47.50
8882;DHT22;4477;48.736;9.176;2022-07-06T13:46:46;32.70;51.90
8882;DHT22;4477;48.736;9.176;2022-07-06T13:49:14;33.20;48.10
8882;DHT22;4477;48.736;9.176;2022-07-06T13:51:41;33.80;45.30
8882;DHT22;4477;48.736;9.176;2022-07-06T13:54:08;33.50;46.80
8882;DHT22;4477;48.736;9.176;2022-07-06T13:56:43;32.10;47.20
8882;DHT22;4477;48.736;9.176;2022-07-06T13:59:11;29.30;49.90
8882;DHT22;4477;48.736;9.176;2022-07-06T14:01:39;27.20;52.50
8882;DHT22;4477;48.736;9.176;2022-07-06T14:04:06;25.90;56.40
8882;DHT22;4477;48.736;9.176;2022-07-06T14:06:33;25.30;57.40
8882;DHT22;4477;48.736;9.176;2022-07-06T14:09:00;25.40;59.00
8882;DHT22;4477;48.736;9.176;2022-07-06T14:11:28;25.30;56.90
8882;DHT22;4477;48.736;9.176;2022-07-06T14:13:55;25.80;56.80
8882;DHT22;4477;48.736;9.176;2022-07-06T14:16:22;26.00;55.20
8882;DHT22;4477;48.736;9.176;2022-07-06T14:18:51;27.10;57.10
8882;DHT22;4477;48.736;9.176;2022-07-06T14:21:18;28.40;54.10
8882;DHT22;4477;48.736;9.176;2022-07-06T14:23:45;29.00;52.00
8882;DHT22;4477;48.736;9.176;2022-07-06T14:26:14;29.00;52.50
8882;DHT22;4477;48.736;9.176;2022-07-06T14:28:42;29.00;53.20
8882;DHT22;4477;48.736;9.176;2022-07-06T14:31:09;29.60;51.40
8882;DHT22;4477;48.736;9.176;2022-07-06T14:33:37;30.20;52.10
8882;DHT22;4477;48.736;9.176;2022-07-06T14:36:06;31.10;47.30
8882;DHT22;4477;48.736;9.176;2022-07-06T14:38:33;30.60;49.00
8882;DHT22;4477;48.736;9.176;2022-07-06T14:41:00;30.30;48.40
8882;DHT22;4477;48.736;9.176;2022-07-06T14:43:28;29.90;48.90
8882;DHT22;4477;48.736;9.176;2022-07-06T14:45:55;29.50;51.50
8882;DHT22;4477;48.736;9.176;2022-07-06T14:48:22;29.70;48.70
8882;DHT22;4477;48.736;9.176;2022-07-06T14:50:49;29.50;51.80
8882;DHT22;4477;48.736;9.176;2022-07-06T14:53:18;30.40;48.50
8882;DHT22;4477;48.736;9.176;2022-07-06T14:55:46;31.40;48.60
8882;DHT22;4477;48.736;9.176;2022-07-06T14:58:14;31.70;47.40
8882;DHT22;4477;48.736;9.176;2022-07-06T15:00:43;32.20;44.60
8882;DHT22;4477;48.736;9.176;2022-07-06T15:03:10;32.60;46.50
8882;DHT22;4477;48.736;9.176;2022-07-06T15:05:37;32.50;47.10
8882;DHT22;4477;48.736;9.176;2022-07-06T15:08:05;33.00;44.70
8882;DHT22;4477;48.736;9.176;2022-07-06T15:10:33;33.00;42.20
8882;DHT22;4477;48.736;9.176;2022-07-06T15:13:00;33.50;43.20
8882;DHT22;4477;48.736;9.176;2022-07-06T15:15:27;33.40;42.10
8882;DHT22;4477;48.736;9.176;2022-07-06T15:17:54;33.50;41.90
8882;DHT22;4477;48.736;9.176;2022-07-06T15:20:21;33.70;44.10
8882;DHT22;4477;48.736;9.176;2022-07-06T15:22:48;33.80;41.50
8882;DHT22;4477;48.736;9.176;2022-07-06T15:25:15;33.90;42.90
8882;DHT22;4477;48.736;9.176;2022-07-06T15:27:48;32.50;40.30
8882;DHT22;4477;48.736;9.176;2022-07-06T15:30:15;30.20;46.40
8882;DHT22;4477;48.736;9.176;2022-07-06T15:32:42;30.50;46.20
8882;DHT22;4477;48.736;9.176;2022-07-06T15:35:10;30.80;45.70
8882;DHT22;4477;48.736;9.176;2022-07-06T15:37:37;31.40;44.10
8882;DHT22;4477;48.736;9.176;2022-07-06T15:40:07;31.10;44.10
8882;DHT22;4477;48.736;9.176;2022-07-06T15:42:37;29.80;44.60
8882;DHT22;4477;48.736;9.176;2022-07-06T15:45:07;29.40;46.70
8882;DHT22;4477;48.736;9.176;2022-07-06T15:47:34;28.40;48.60
8882;DHT22;4477;48.736;9.176;2022-07-06T15:50:01;27.90;49.10
8882;DHT22;4477;48.736;9.176;2022-07-06T15:52:28;27.90;49.20
8882;DHT22;4477;48.736;9.176;2022-07-06T15:54:55;28.60;47.60
8882;DHT22;4477;48.736;9.176;2022-07-06T15:57:22;28.30;47.00
8882;DHT22;4477;48.736;9.176;2022-07-06T15:59:49;28.50;49.50
8882;DHT22;4477;48.736;9.176;2022-07-06T16:02:17;28.30;48.70
8882;DHT22;4477;48.736;9.176;2022-07-06T16:04:45;27.90;48.00
8882;DHT22;4477;48.736;9.176;2022-07-06T16:07:12;27.70;49.80
8882;DHT22;4477;48.736;9.176;2022-07-06T16:09:39;27.50;47.80